createdAt,value
2018-12-23T00:01:03.522Z,3.07
2018-12-23T00:02:06.786Z,2.13
2018-12-23T00:03:10.132Z,2.62
2018-12-23T00:04:13.358Z,1.83
2018-12-23T00:05:16.627Z,2.50
2018-12-23T00:06:19.874Z,3.17
2018-12-23T00:07:23.117Z,2.90
2018-12-23T00:08:26.377Z,2.90
2018-12-23T00:09:29.606Z,1.37
2018-12-23T00:10:32.866Z,2.77
2018-12-23T00:11:36.138Z,1.98
2018-12-23T00:12:39.399Z,1.95
2018-12-23T00:13:42.640Z,2.27
2018-12-23T00:14:45.886Z,2.25
2018-12-23T00:15:49.131Z,3.58
2018-12-23T00:16:52.378Z,3.65
2018-12-23T00:17:55.659Z,2.00
2018-12-23T00:18:58.861Z,3.83
2018-12-23T00:20:02.274Z,1.93
2018-12-23T00:21:05.554Z,2.50
2018-12-23T00:22:08.781Z,2.70
2018-12-23T00:23:12.062Z,1.90
2018-12-23T00:24:15.386Z,1.93
2018-12-23T00:25:18.612Z,2.00
2018-12-23T00:26:21.862Z,2.77
2018-12-23T00:27:25.121Z,2.50
2018-12-23T00:28:28.367Z,2.92
2018-12-23T00:29:31.584Z,0.90
2018-12-23T00:30:34.897Z,1.10
2018-12-23T00:31:38.252Z,1.50
2018-12-23T00:32:41.606Z,1.37
2018-12-23T00:33:44.892Z,1.52
2018-12-23T00:34:48.146Z,2.57
2018-12-23T00:35:51.398Z,1.80
2018-12-23T00:36:54.695Z,1.60
2018-12-23T00:37:57.972Z,1.02
2018-12-23T00:39:01.224Z,1.50
2018-12-23T00:40:05.769Z,1.27
2018-12-23T00:41:09.004Z,1.87
2018-12-23T00:42:12.273Z,1.10
2018-12-23T00:43:15.555Z,2.20
2018-12-23T00:44:19.166Z,1.07
2018-12-23T00:45:22.371Z,0.90
2018-12-23T00:46:25.607Z,1.35
2018-12-23T00:47:28.967Z,1.17
2018-12-23T00:48:32.240Z,1.32
2018-12-23T00:49:35.691Z,1.47
2018-12-23T00:50:38.921Z,1.20
2018-12-23T00:51:42.197Z,1.07
2018-12-23T00:52:45.422Z,2.92
2018-12-23T00:53:48.691Z,1.37
2018-12-23T00:54:51.967Z,0.95
2018-12-23T00:55:55.212Z,1.37
2018-12-23T00:56:58.433Z,1.13
2018-12-23T00:58:01.699Z,0.70
2018-12-23T00:59:04.982Z,0.77
2018-12-23T01:00:08.796Z,0.83
2018-12-23T01:01:12.084Z,1.33
2018-12-23T01:02:15.357Z,1.40
2018-12-23T01:03:19.954Z,1.03
2018-12-23T01:04:23.207Z,2.23
2018-12-23T01:05:28.912Z,1.67
2018-12-23T01:06:31.719Z,1.00
2018-12-23T01:07:35.034Z,0.83
2018-12-23T01:08:38.266Z,1.20
2018-12-23T01:09:41.522Z,1.20
2018-12-23T01:10:44.980Z,1.33
2018-12-23T01:11:48.191Z,1.83
2018-12-23T01:12:51.442Z,1.43
2018-12-23T01:13:54.670Z,1.63
2018-12-23T01:14:57.918Z,1.03
2018-12-23T01:16:01.174Z,1.82
2018-12-23T01:17:04.925Z,1.67
2018-12-23T01:18:08.196Z,0.87
2018-12-23T01:19:11.479Z,1.13
2018-12-23T01:20:14.944Z,1.17
2018-12-23T01:21:18.266Z,2.17
2018-12-23T01:22:21.530Z,1.42
2018-12-23T01:23:24.786Z,0.85
2018-12-23T01:24:28.046Z,2.58
2018-12-23T01:25:31.542Z,0.80
2018-12-23T01:26:34.797Z,1.05
2018-12-23T01:27:38.163Z,1.00
2018-12-23T01:28:41.443Z,1.50
2018-12-23T01:29:44.729Z,1.12
2018-12-23T01:30:47.963Z,0.93
2018-12-23T01:31:51.258Z,1.10
2018-12-23T01:32:54.536Z,1.23
2018-12-23T01:33:57.802Z,1.83
2018-12-23T01:35:01.056Z,1.17
2018-12-23T01:36:04.306Z,2.57
2018-12-23T01:37:07.556Z,1.80
2018-12-23T01:38:10.796Z,1.97
2018-12-23T01:39:14.178Z,1.37
2018-12-23T01:40:17.462Z,1.05
2018-12-23T01:41:20.724Z,1.22
2018-12-23T01:42:24.086Z,1.30
2018-12-23T01:43:27.324Z,1.23
2018-12-23T01:44:30.601Z,1.12
2018-12-23T01:45:33.893Z,1.17
2018-12-23T01:46:37.126Z,1.77
2018-12-23T01:47:40.357Z,1.40
2018-12-23T01:48:43.590Z,1.22
2018-12-23T01:49:46.921Z,1.30
2018-12-23T01:50:50.194Z,1.47
2018-12-23T01:51:53.490Z,1.03
2018-12-23T01:52:56.771Z,1.13
2018-12-23T01:54:00.013Z,2.13
2018-12-23T01:55:04.580Z,0.97
2018-12-23T01:56:07.841Z,2.23
2018-12-23T01:57:11.320Z,0.72
2018-12-23T01:58:14.566Z,1.72
2018-12-23T01:59:17.825Z,1.00
2018-12-23T02:00:21.087Z,2.75
2018-12-23T02:01:24.346Z,1.32
2018-12-23T02:02:27.627Z,0.78
2018-12-23T02:03:30.834Z,3.02
2018-12-23T02:04:34.119Z,1.60
2018-12-23T02:05:45.844Z,2.30
2018-12-23T02:06:42.663Z,2.35
2018-12-23T02:07:45.963Z,1.87
2018-12-23T02:08:49.459Z,1.98
2018-12-23T02:09:52.659Z,1.70
2018-12-23T02:10:55.894Z,0.90
2018-12-23T02:11:59.161Z,2.30
2018-12-23T02:13:02.451Z,1.83
2018-12-23T02:14:05.787Z,2.08
2018-12-23T02:15:09.020Z,2.13
2018-12-23T02:16:12.304Z,1.45
2018-12-23T02:17:15.537Z,2.07
2018-12-23T02:18:18.841Z,1.70
2018-12-23T02:19:22.140Z,1.60
2018-12-23T02:20:25.933Z,2.37
2018-12-23T02:21:29.367Z,2.67
2018-12-23T02:22:32.645Z,2.70
2018-12-23T02:23:35.868Z,1.80
2018-12-23T02:24:39.397Z,2.35
2018-12-23T02:25:42.637Z,3.37
2018-12-23T02:26:45.931Z,3.08
2018-12-23T02:27:49.162Z,0.80
2018-12-23T02:28:52.445Z,1.33
2018-12-23T02:29:55.783Z,2.30
2018-12-23T02:30:59.012Z,2.37
2018-12-23T02:32:02.868Z,2.20
2018-12-23T02:33:06.167Z,3.15
2018-12-23T02:34:09.417Z,2.22
2018-12-23T02:35:12.659Z,1.98
2018-12-23T02:36:15.901Z,1.12
2018-12-23T02:37:19.130Z,1.32
2018-12-23T02:38:22.398Z,2.98
2018-12-23T02:39:25.665Z,3.20
2018-12-23T02:40:28.936Z,1.60
2018-12-23T02:41:32.237Z,2.55
2018-12-23T02:42:35.507Z,1.50
2018-12-23T02:43:38.746Z,2.00
2018-12-23T02:44:42.058Z,1.60
2018-12-23T02:45:45.292Z,2.10
2018-12-23T02:46:48.524Z,1.27
2018-12-23T02:47:51.827Z,1.67
2018-12-23T02:48:55.095Z,1.55
2018-12-23T02:49:58.340Z,1.93
2018-12-23T02:51:01.579Z,1.57
2018-12-23T02:52:05.100Z,2.25
2018-12-23T02:53:08.427Z,2.10
2018-12-23T02:54:17.753Z,1.65
2018-12-23T02:55:26.907Z,2.52
2018-12-23T02:56:36.044Z,1.27
2018-12-23T02:57:45.296Z,2.55
2018-12-23T02:58:48.659Z,1.37
2018-12-23T02:59:52.048Z,2.02
2018-12-23T03:00:55.273Z,1.75
2018-12-23T03:01:58.551Z,2.55
2018-12-23T03:03:01.821Z,2.77
2018-12-23T03:04:05.067Z,2.35
2018-12-23T03:05:08.312Z,2.05
2018-12-23T03:06:11.619Z,1.62
2018-12-23T03:07:14.863Z,1.75
2018-12-23T03:08:18.109Z,1.87
2018-12-23T03:09:21.362Z,3.77
2018-12-23T03:10:24.613Z,3.27
2018-12-23T03:11:27.953Z,2.73
2018-12-23T03:12:31.204Z,2.67
2018-12-23T03:13:34.558Z,2.90
2018-12-23T03:15:47.507Z,2.27
2018-12-23T03:16:50.777Z,1.50
2018-12-23T03:17:54.119Z,2.33
2018-12-23T03:18:57.345Z,2.17
2018-12-23T03:20:00.582Z,1.77
2018-12-23T03:21:03.964Z,2.17
2018-12-23T03:22:07.228Z,1.62
2018-12-23T03:23:10.475Z,3.30
2018-12-23T03:24:13.702Z,2.73
2018-12-23T03:25:16.962Z,1.70
2018-12-23T03:26:20.215Z,2.50
2018-12-23T03:27:23.468Z,1.98
2018-12-23T03:28:26.766Z,2.87
2018-12-23T03:29:30.078Z,1.22
2018-12-23T03:30:33.344Z,1.30
2018-12-23T03:31:36.612Z,2.27
2018-12-23T03:32:39.916Z,1.70
2018-12-23T03:33:43.207Z,1.22
2018-12-23T03:34:46.428Z,1.92
2018-12-23T03:35:49.710Z,2.22
2018-12-23T03:36:52.941Z,2.45
2018-12-23T03:37:56.215Z,3.10
2018-12-23T03:38:59.518Z,2.23
2018-12-23T03:40:02.919Z,2.17
2018-12-23T03:41:06.443Z,1.80
2018-12-23T03:42:09.676Z,2.03
2018-12-23T03:43:12.934Z,3.43
2018-12-23T03:44:16.169Z,2.40
2018-12-23T03:45:19.442Z,1.47
2018-12-23T03:46:22.683Z,2.70
2018-12-23T03:47:25.923Z,2.43
2018-12-23T03:48:29.234Z,3.20
2018-12-23T03:49:32.505Z,3.17
2018-12-23T03:50:35.746Z,3.57
2018-12-23T03:51:38.993Z,1.30
2018-12-23T03:52:42.223Z,2.23
2018-12-23T03:53:45.468Z,3.73
2018-12-23T03:54:49.136Z,2.47
2018-12-23T03:55:52.385Z,1.20
2018-12-23T03:56:55.625Z,1.77
2018-12-23T03:57:59.023Z,3.57
2018-12-23T03:59:02.273Z,2.33
2018-12-23T04:00:05.630Z,3.97
2018-12-23T04:01:08.888Z,1.97
2018-12-23T04:02:12.158Z,3.60
2018-12-23T04:03:15.502Z,3.02
2018-12-23T04:04:18.756Z,2.90
2018-12-23T04:05:22.057Z,2.15
2018-12-23T04:06:25.273Z,2.22
2018-12-23T04:07:28.519Z,3.62
2018-12-23T04:08:31.860Z,3.85
2018-12-23T04:09:35.206Z,2.77
2018-12-23T04:10:38.552Z,4.40
2018-12-23T04:11:41.801Z,2.60
2018-12-23T04:12:45.053Z,2.08
2018-12-23T04:13:48.405Z,2.55
2018-12-23T04:14:51.689Z,3.35
2018-12-23T04:15:54.927Z,3.40
2018-12-23T04:16:58.156Z,4.20
2018-12-23T04:18:01.432Z,3.57
2018-12-23T04:19:04.665Z,3.23
2018-12-23T04:20:07.896Z,2.70
2018-12-23T04:21:11.120Z,2.97
2018-12-23T04:22:14.613Z,4.22
2018-12-23T04:23:17.859Z,2.87
2018-12-23T04:24:21.095Z,2.10
2018-12-23T04:25:24.362Z,2.97
2018-12-23T04:26:27.601Z,2.67
2018-12-23T04:27:30.861Z,3.60
2018-12-23T04:28:34.099Z,3.33
2018-12-23T04:29:37.437Z,3.43
2018-12-23T04:30:40.772Z,3.70
2018-12-23T04:31:44.038Z,4.37
2018-12-23T04:32:47.287Z,4.33
2018-12-23T04:33:50.693Z,2.98
2018-12-23T04:34:53.971Z,1.57
2018-12-23T04:35:57.217Z,3.93
2018-12-23T04:37:00.476Z,3.93
2018-12-23T04:38:03.745Z,2.25
2018-12-23T04:39:06.978Z,1.50
2018-12-23T04:40:10.231Z,1.45
2018-12-23T04:41:13.460Z,3.95
2018-12-23T04:42:17.117Z,2.52
2018-12-23T04:43:20.389Z,2.70
2018-12-23T04:44:23.733Z,2.30
2018-12-23T04:45:26.954Z,2.65
2018-12-23T04:46:30.213Z,1.47
2018-12-23T04:47:33.440Z,3.33
2018-12-23T04:48:36.705Z,2.70
2018-12-23T04:49:39.971Z,1.75
2018-12-23T04:50:43.227Z,1.90
2018-12-23T04:51:46.486Z,2.58
2018-12-23T04:52:49.764Z,1.57
2018-12-23T04:53:53.004Z,3.73
2018-12-23T04:54:56.245Z,1.75
2018-12-23T04:55:59.530Z,1.00
2018-12-23T04:57:02.784Z,1.52
2018-12-23T04:58:06.041Z,1.40
2018-12-23T04:59:09.319Z,2.53
2018-12-23T05:00:12.569Z,2.95
2018-12-23T05:01:15.808Z,2.70
2018-12-23T05:02:19.148Z,2.30
2018-12-23T05:03:22.418Z,1.20
2018-12-23T05:04:25.691Z,1.53
2018-12-23T05:05:28.912Z,2.63
2018-12-23T05:06:32.197Z,1.98
2018-12-23T05:07:35.416Z,2.72
2018-12-23T05:08:38.667Z,2.33
2018-12-23T05:09:41.902Z,1.90
2018-12-23T05:10:45.357Z,2.07
2018-12-23T05:11:48.602Z,1.27
2018-12-23T05:12:51.840Z,1.45
2018-12-23T05:13:55.086Z,1.50
2018-12-23T05:14:58.436Z,2.60
2018-12-23T05:16:01.672Z,1.75
2018-12-23T05:17:04.922Z,1.72
2018-12-23T05:18:08.195Z,1.70
2018-12-23T05:19:11.453Z,2.42
2018-12-23T05:20:14.781Z,0.60
2018-12-23T05:21:18.090Z,2.58
2018-12-23T05:22:21.415Z,1.20
2018-12-23T05:23:24.652Z,1.62
2018-12-23T05:24:27.893Z,2.58
2018-12-23T05:25:31.162Z,1.47
2018-12-23T05:26:34.396Z,2.25
2018-12-23T05:27:37.636Z,1.33
2018-12-23T05:28:40.893Z,1.47
2018-12-23T05:29:44.113Z,1.47
2018-12-23T05:30:47.359Z,1.53
2018-12-23T05:31:50.615Z,2.53
2018-12-23T05:32:53.899Z,2.72
2018-12-23T05:33:57.119Z,1.20
2018-12-23T05:35:00.370Z,2.87
2018-12-23T05:36:03.704Z,1.27
2018-12-23T05:37:06.983Z,1.27
2018-12-23T05:38:10.344Z,1.63
2018-12-23T05:39:13.633Z,2.07
2018-12-23T05:40:16.874Z,1.47
2018-12-23T05:41:20.126Z,1.52
2018-12-23T05:42:23.404Z,1.33
2018-12-23T05:43:26.641Z,1.10
2018-12-23T05:44:29.894Z,2.08
2018-12-23T05:45:33.288Z,2.52
2018-12-23T05:46:36.599Z,1.55
2018-12-23T05:47:39.889Z,2.90
2018-12-23T05:48:43.148Z,2.47
2018-12-23T05:49:46.391Z,1.75
2018-12-23T05:50:49.625Z,1.30
2018-12-23T05:51:52.853Z,2.30
2018-12-23T05:52:56.144Z,1.82
2018-12-23T05:53:59.391Z,1.20
2018-12-23T05:55:02.617Z,1.82
2018-12-23T05:56:05.996Z,1.95
2018-12-23T05:57:09.230Z,0.95
2018-12-23T05:58:12.543Z,1.87
2018-12-23T05:59:15.802Z,2.02
2018-12-23T06:00:19.064Z,1.47
2018-12-23T06:01:22.305Z,2.60
2018-12-23T06:02:25.536Z,1.80
2018-12-23T06:03:28.781Z,1.60
2018-12-23T06:04:32.018Z,2.37
2018-12-23T06:05:35.277Z,1.47
2018-12-23T06:06:38.530Z,0.72
2018-12-23T06:07:41.784Z,1.00
2018-12-23T06:08:45.023Z,2.77
2018-12-23T06:09:48.264Z,2.43
2018-12-23T06:10:51.541Z,1.30
2018-12-23T06:11:54.806Z,1.20
2018-12-23T06:12:58.123Z,1.20
2018-12-23T06:14:01.372Z,3.27
2018-12-23T06:15:04.652Z,1.85
2018-12-23T06:16:08.013Z,1.47
2018-12-23T06:17:11.324Z,2.40
2018-12-23T06:18:14.622Z,1.52
2018-12-23T06:19:17.878Z,1.67
2018-12-23T06:20:21.122Z,2.10
2018-12-23T06:21:24.393Z,1.85
2018-12-23T06:22:27.703Z,2.10
2018-12-23T06:23:31.041Z,1.87
2018-12-23T06:24:34.417Z,1.50
2018-12-23T06:25:37.722Z,1.92
2018-12-23T06:26:40.993Z,2.12
2018-12-23T06:27:44.256Z,2.08
2018-12-23T06:28:47.513Z,1.30
2018-12-23T06:29:50.809Z,1.22
2018-12-23T06:30:54.019Z,0.88
2018-12-23T06:31:57.272Z,0.78
2018-12-23T06:33:00.519Z,2.15
2018-12-23T06:34:03.776Z,1.85
2018-12-23T06:35:07.058Z,2.05
2018-12-23T06:36:10.315Z,2.43
2018-12-23T06:37:13.555Z,1.23
2018-12-23T06:38:16.811Z,1.00
2018-12-23T06:39:20.066Z,1.07
2018-12-23T06:40:23.322Z,0.70
2018-12-23T06:41:26.582Z,2.40
2018-12-23T06:42:29.857Z,1.40
2018-12-23T06:43:33.107Z,2.53
2018-12-23T06:44:36.347Z,1.70
2018-12-23T06:45:39.593Z,1.17
2018-12-23T06:46:42.834Z,1.17
2018-12-23T06:47:46.104Z,1.47
2018-12-23T06:48:49.583Z,1.93
2018-12-23T06:49:52.859Z,2.07
2018-12-23T06:50:56.127Z,1.90
2018-12-23T06:51:59.441Z,1.47
2018-12-23T06:53:02.697Z,1.65
2018-12-23T06:54:05.972Z,1.67
2018-12-23T06:55:09.253Z,1.17
2018-12-23T06:56:12.494Z,2.67
2018-12-23T06:57:15.720Z,2.20
2018-12-23T06:58:18.993Z,1.87
2018-12-23T06:59:22.270Z,1.67
2018-12-23T07:00:25.589Z,1.70
2018-12-23T07:01:28.945Z,1.57
2018-12-23T07:02:32.558Z,0.88
2018-12-23T07:03:35.868Z,2.98
2018-12-23T07:04:39.226Z,1.25
2018-12-23T07:05:42.477Z,1.95
2018-12-23T07:06:45.745Z,1.72
2018-12-23T07:07:49.007Z,0.70
2018-12-23T07:08:52.291Z,2.17
2018-12-23T07:09:55.575Z,1.27
2018-12-23T07:10:58.814Z,1.12
2018-12-23T07:12:02.124Z,1.25
2018-12-23T07:13:05.353Z,1.60
2018-12-23T07:14:08.691Z,2.13
2018-12-23T07:15:11.924Z,1.60
2018-12-23T07:16:15.152Z,1.17
2018-12-23T07:17:18.438Z,2.15
2018-12-23T07:18:21.674Z,1.63
2018-12-23T07:19:24.902Z,1.40
2018-12-23T07:20:28.165Z,0.80
2018-12-23T07:21:31.448Z,1.53
2018-12-23T07:22:34.753Z,1.95
2018-12-23T07:23:37.977Z,2.27
2018-12-23T07:24:41.315Z,1.70
2018-12-23T07:25:44.563Z,2.17
2018-12-23T07:26:47.800Z,1.60
2018-12-23T07:27:51.057Z,2.37
2018-12-23T07:28:54.352Z,1.25
2018-12-23T07:29:57.642Z,1.60
2018-12-23T07:31:00.894Z,2.05
2018-12-23T07:32:04.150Z,2.00
2018-12-23T07:33:07.408Z,2.80
2018-12-23T07:34:10.833Z,2.63
2018-12-23T07:35:14.052Z,1.22
2018-12-23T07:36:17.326Z,2.10
2018-12-23T07:37:27.383Z,1.53
2018-12-23T07:38:26.476Z,1.92
2018-12-23T07:39:29.730Z,1.92
2018-12-23T07:40:32.960Z,2.05
2018-12-23T07:41:36.210Z,1.80
2018-12-23T07:42:39.457Z,2.87
2018-12-23T07:43:42.685Z,3.05
2018-12-23T07:44:45.932Z,1.35
2018-12-23T07:45:49.169Z,1.40
2018-12-23T07:46:52.436Z,2.02
2018-12-23T07:47:55.671Z,1.60
2018-12-23T07:48:58.910Z,2.95
2018-12-23T07:50:02.148Z,1.30
2018-12-23T07:51:05.426Z,2.23
2018-12-23T07:52:09.159Z,1.60
2018-12-23T07:53:12.411Z,1.10
2018-12-23T07:54:15.724Z,1.77
2018-12-23T07:55:18.945Z,1.37
2018-12-23T07:56:22.190Z,1.57
2018-12-23T07:57:25.460Z,1.87
2018-12-23T07:58:28.702Z,2.40
2018-12-23T07:59:31.964Z,1.53
2018-12-23T08:00:35.248Z,2.50
2018-12-23T08:01:38.600Z,2.30
2018-12-23T08:02:41.882Z,1.53
2018-12-23T08:03:45.130Z,2.17
2018-12-23T08:04:48.378Z,1.30
2018-12-23T08:05:51.639Z,1.87
2018-12-23T08:06:54.899Z,1.97
2018-12-23T08:07:58.164Z,2.30
2018-12-23T08:09:01.482Z,1.87
2018-12-23T08:10:04.830Z,3.20
2018-12-23T08:11:08.079Z,2.40
2018-12-23T08:12:11.630Z,3.77
2018-12-23T08:13:14.979Z,3.62
2018-12-23T08:14:18.218Z,1.50
2018-12-23T08:15:21.474Z,2.62
2018-12-23T08:16:24.739Z,3.05
2018-12-23T08:17:27.997Z,2.30
2018-12-23T08:18:31.225Z,3.27
2018-12-23T08:19:34.488Z,1.85
2018-12-23T08:20:37.845Z,4.58
2018-12-23T08:21:41.096Z,2.08
2018-12-23T08:22:44.346Z,2.62
2018-12-23T08:23:47.654Z,2.27
2018-12-23T08:24:50.877Z,2.30
2018-12-23T08:25:54.111Z,2.23
2018-12-23T08:26:57.363Z,2.05
2018-12-23T08:28:00.594Z,1.77
2018-12-23T08:29:03.890Z,2.23
2018-12-23T08:30:07.186Z,3.17
2018-12-23T08:31:10.440Z,2.05
2018-12-23T08:32:13.700Z,2.83
2018-12-23T08:33:16.927Z,3.42
2018-12-23T08:34:20.169Z,1.53
2018-12-23T08:35:23.509Z,1.70
2018-12-23T08:36:26.808Z,2.62
2018-12-23T08:37:30.075Z,1.40
2018-12-23T08:38:33.362Z,2.27
2018-12-23T08:39:36.636Z,3.60
2018-12-23T08:40:39.878Z,2.30
2018-12-23T08:41:43.258Z,1.57
2018-12-23T08:42:46.517Z,1.80
2018-12-23T08:43:49.855Z,3.30
2018-12-23T08:44:53.153Z,2.90
2018-12-23T08:45:56.371Z,2.20
2018-12-23T08:46:59.609Z,2.67
2018-12-23T08:48:02.874Z,1.87
2018-12-23T08:49:06.136Z,2.90
2018-12-23T08:50:09.361Z,3.10
2018-12-23T08:51:13.370Z,2.15
2018-12-23T08:52:16.631Z,2.20
2018-12-23T08:53:19.908Z,2.33
2018-12-23T08:54:23.177Z,1.75
2018-12-23T08:55:26.738Z,2.80
2018-12-23T08:56:30.084Z,2.85
2018-12-23T08:57:35.389Z,3.12
2018-12-23T08:58:38.656Z,1.67
2018-12-23T08:59:41.968Z,2.65
2018-12-23T09:00:45.268Z,4.15
2018-12-23T09:01:48.502Z,2.40
2018-12-23T09:02:51.741Z,3.90
2018-12-23T09:03:54.998Z,2.57
2018-12-23T09:04:58.257Z,3.27
2018-12-23T09:06:01.514Z,3.27
2018-12-23T09:07:04.837Z,3.07
2018-12-23T09:08:11.359Z,4.53
2018-12-23T09:09:14.732Z,3.83
2018-12-23T09:10:18.663Z,3.27
2018-12-23T09:11:21.975Z,4.20
2018-12-23T09:12:25.195Z,2.67
2018-12-23T09:13:28.469Z,2.67
2018-12-23T09:14:32.136Z,4.07
2018-12-23T09:15:35.403Z,2.50
2018-12-23T09:16:38.662Z,2.60
2018-12-23T09:17:42.112Z,3.90
2018-12-23T09:18:45.443Z,2.87
2018-12-23T09:19:48.685Z,4.83
2018-12-23T09:20:51.966Z,3.58
2018-12-23T09:21:55.268Z,5.40
2018-12-23T09:22:58.534Z,4.70
2018-12-23T09:24:01.789Z,2.40
2018-12-23T09:25:05.426Z,4.65
2018-12-23T09:26:08.898Z,4.30
2018-12-23T09:27:12.126Z,3.37
2018-12-23T09:28:15.410Z,4.15
2018-12-23T09:29:18.755Z,4.25
2018-12-23T09:30:22.063Z,4.33
2018-12-23T09:31:25.301Z,4.08
2018-12-23T09:32:28.539Z,5.30
2018-12-23T09:33:31.809Z,3.40
2018-12-23T09:34:35.053Z,4.72
2018-12-23T09:35:38.289Z,3.25
2018-12-23T09:36:41.720Z,3.90
2018-12-23T09:37:44.998Z,4.03
2018-12-23T09:38:48.287Z,2.95
2018-12-23T09:39:51.535Z,3.57
2018-12-23T09:40:54.805Z,4.03
2018-12-23T09:41:58.051Z,2.97
2018-12-23T09:43:01.280Z,3.10
2018-12-23T09:44:04.544Z,4.80
2018-12-23T09:45:07.803Z,2.90
2018-12-23T09:46:11.071Z,5.70
2018-12-23T09:47:14.393Z,3.03
2018-12-23T09:48:17.646Z,4.30
2018-12-23T09:49:20.902Z,4.27
2018-12-23T09:50:24.155Z,4.93
2018-12-23T09:51:28.465Z,5.40
2018-12-23T09:52:31.715Z,5.63
2018-12-23T09:53:34.996Z,5.03
2018-12-23T09:54:38.254Z,4.28
2018-12-23T09:55:41.588Z,7.43
2018-12-23T09:56:44.920Z,5.35
2018-12-23T09:57:48.235Z,4.67
2018-12-23T09:58:51.790Z,4.37
2018-12-23T09:59:55.017Z,3.90
2018-12-23T10:00:58.268Z,4.17
2018-12-23T10:02:01.636Z,3.47
2018-12-23T10:03:04.912Z,4.67
2018-12-23T10:04:09.177Z,4.00
2018-12-23T10:05:12.521Z,4.85
2018-12-23T10:06:15.803Z,3.35
2018-12-23T10:07:19.097Z,4.37
2018-12-23T10:08:22.372Z,7.78
2018-12-23T10:09:25.622Z,4.87
2018-12-23T10:10:28.884Z,5.17
2018-12-23T10:11:32.145Z,3.98
2018-12-23T10:12:35.352Z,5.37
2018-12-23T10:13:38.669Z,5.03
2018-12-23T10:14:41.941Z,3.63
2018-12-23T10:15:45.711Z,4.73
2018-12-23T10:16:48.997Z,4.07
2018-12-23T10:17:52.255Z,6.42
2018-12-23T10:18:55.526Z,5.03
2018-12-23T10:19:58.789Z,4.17
2018-12-23T10:21:02.221Z,3.43
2018-12-23T10:22:05.422Z,3.03
2018-12-23T10:23:08.704Z,3.93
2018-12-23T10:24:11.931Z,3.87
2018-12-23T10:25:15.449Z,4.80
2018-12-23T10:26:18.732Z,4.20
2018-12-23T10:27:21.967Z,3.83
2018-12-23T10:28:25.216Z,3.97
2018-12-23T10:29:28.566Z,4.13
2018-12-23T10:30:31.845Z,4.53
2018-12-23T10:31:35.101Z,5.57
2018-12-23T10:32:38.452Z,5.33
2018-12-23T10:33:41.676Z,3.87
2018-12-23T10:34:44.939Z,5.10
2018-12-23T10:35:48.319Z,3.47
2018-12-23T10:36:51.579Z,4.50
2018-12-23T10:37:54.871Z,2.75
2018-12-23T10:38:58.166Z,3.67
2018-12-23T10:40:01.864Z,4.03
2018-12-23T10:41:05.416Z,5.20
2018-12-23T10:42:08.836Z,6.87
2018-12-23T10:43:12.078Z,5.80
2018-12-23T10:44:15.336Z,4.08
2018-12-23T10:45:18.779Z,4.15
2018-12-23T10:46:22.389Z,5.08
2018-12-23T10:47:25.634Z,4.05
2018-12-23T10:48:28.890Z,5.50
2018-12-23T10:49:32.191Z,4.07
2018-12-23T10:50:35.414Z,6.03
2018-12-23T10:51:38.665Z,6.00
2018-12-23T10:52:41.903Z,3.93
2018-12-23T10:53:45.263Z,4.70
2018-12-23T10:54:48.634Z,5.50
2018-12-23T10:55:51.860Z,5.80
2018-12-23T10:56:55.103Z,5.50
2018-12-23T10:57:58.394Z,4.10
2018-12-23T10:59:01.684Z,4.63
2018-12-23T11:00:08.892Z,4.65
2018-12-23T11:01:12.199Z,6.28
2018-12-23T11:02:15.457Z,4.33
2018-12-23T11:03:18.710Z,3.60
2018-12-23T11:04:21.960Z,5.03
2018-12-23T11:05:25.273Z,4.43
2018-12-23T11:06:28.600Z,4.80
2018-12-23T11:07:31.895Z,5.00
2018-12-23T11:08:35.149Z,6.93
2018-12-23T11:09:38.411Z,4.27
2018-12-23T11:10:41.674Z,2.23
2018-12-23T11:11:44.941Z,5.03
2018-12-23T11:12:48.187Z,3.22
2018-12-23T11:13:51.475Z,3.15
2018-12-23T11:14:54.767Z,4.28
2018-12-23T11:15:58.028Z,5.15
2018-12-23T11:17:01.367Z,4.45
2018-12-23T11:18:04.589Z,3.27
2018-12-23T11:19:07.831Z,4.03
2018-12-23T11:20:11.111Z,3.98
2018-12-23T11:21:14.353Z,4.65
2018-12-23T11:22:17.610Z,4.42
2018-12-23T11:23:20.884Z,5.20
2018-12-23T11:24:24.146Z,4.33
2018-12-23T11:25:27.393Z,3.47
2018-12-23T11:26:30.713Z,3.62
2018-12-23T11:27:33.934Z,2.87
2018-12-23T11:28:37.328Z,3.70
2018-12-23T11:29:40.605Z,3.22
2018-12-23T11:30:43.888Z,5.40
2018-12-23T11:31:47.151Z,3.13
2018-12-23T11:32:50.408Z,3.10
2018-12-23T11:33:53.700Z,3.05
2018-12-23T11:34:57.056Z,3.83
2018-12-23T11:36:00.312Z,5.10
2018-12-23T11:37:03.567Z,3.73
2018-12-23T11:38:06.813Z,4.03
2018-12-23T11:39:10.078Z,2.67
2018-12-23T11:40:13.302Z,3.80
2018-12-23T11:41:16.780Z,2.90
2018-12-23T11:42:20.064Z,3.17
2018-12-23T11:43:23.494Z,4.33
2018-12-23T11:44:26.757Z,4.20
2018-12-23T11:45:30.016Z,4.33
2018-12-23T11:46:33.270Z,3.67
2018-12-23T11:47:36.531Z,4.60
2018-12-23T11:48:39.780Z,4.45
2018-12-23T11:49:43.050Z,4.47
2018-12-23T11:50:46.297Z,3.62
2018-12-23T11:51:49.598Z,3.75
2018-12-23T11:52:52.834Z,4.20
2018-12-23T11:53:56.106Z,2.65
2018-12-23T11:54:59.378Z,3.42
2018-12-23T11:56:02.635Z,3.27
2018-12-23T11:57:06.029Z,3.58
2018-12-23T11:58:09.261Z,2.95
2018-12-23T11:59:12.546Z,4.72
2018-12-23T12:00:15.777Z,4.70
2018-12-23T12:01:19.095Z,4.50
2018-12-23T12:02:22.390Z,4.67
2018-12-23T12:03:25.720Z,3.30
2018-12-23T12:04:29.036Z,4.43
2018-12-23T12:05:32.318Z,4.47
2018-12-23T12:06:35.889Z,2.33
2018-12-23T12:07:39.141Z,3.83
2018-12-23T12:08:43.868Z,3.40
2018-12-23T12:09:47.700Z,2.90
2018-12-23T12:10:50.907Z,4.40
2018-12-23T12:11:54.383Z,5.10
2018-12-23T12:12:57.640Z,4.63
2018-12-23T12:14:00.891Z,5.83
2018-12-23T12:15:04.320Z,3.70
2018-12-23T12:16:07.573Z,4.40
2018-12-23T12:17:10.814Z,4.37
2018-12-23T12:18:14.066Z,3.35
2018-12-23T12:19:17.330Z,3.00
2018-12-23T12:20:20.588Z,3.57
2018-12-23T12:21:23.956Z,2.80
2018-12-23T12:22:27.221Z,3.63
2018-12-23T12:23:30.546Z,3.60
2018-12-23T12:24:33.794Z,5.55
2018-12-23T12:25:37.072Z,3.05
2018-12-23T12:26:40.359Z,3.25
2018-12-23T12:27:43.606Z,3.27
2018-12-23T12:28:46.852Z,2.92
2018-12-23T12:29:50.072Z,5.08
2018-12-23T12:30:53.331Z,3.80
2018-12-23T12:31:56.684Z,3.20
2018-12-23T12:32:59.938Z,3.40
2018-12-23T12:34:03.192Z,2.93
2018-12-23T12:35:06.523Z,2.60
2018-12-23T12:36:09.946Z,2.50
2018-12-23T12:37:13.223Z,3.17
2018-12-23T12:38:16.468Z,3.10
2018-12-23T12:39:19.748Z,4.10
2018-12-23T12:40:23.327Z,3.77
2018-12-23T12:41:26.812Z,3.30
2018-12-23T12:42:30.127Z,3.60
2018-12-23T12:43:33.632Z,3.83
2018-12-23T12:44:36.896Z,5.00
2018-12-23T12:45:40.148Z,4.57
2018-12-23T12:46:43.403Z,2.90
2018-12-23T12:47:46.670Z,4.83
2018-12-23T12:48:50.030Z,4.90
2018-12-23T12:49:53.291Z,4.45
2018-12-23T12:50:56.534Z,4.17
2018-12-23T12:51:59.798Z,3.23
2018-12-23T12:53:03.088Z,3.93
2018-12-23T12:54:06.344Z,3.77
2018-12-23T12:55:09.619Z,3.45
2018-12-23T12:56:12.997Z,2.80
2018-12-23T12:57:16.274Z,3.52
2018-12-23T12:58:19.744Z,3.37
2018-12-23T12:59:22.994Z,2.95
2018-12-23T13:00:26.211Z,3.05
2018-12-23T13:01:29.482Z,2.65
2018-12-23T13:02:32.725Z,2.92
2018-12-23T13:03:35.976Z,3.62
2018-12-23T13:04:39.345Z,2.58
2018-12-23T13:05:42.586Z,3.42
2018-12-23T13:06:45.931Z,4.10
2018-12-23T13:07:49.173Z,1.87
2018-12-23T13:09:00.327Z,2.22
2018-12-23T13:09:57.672Z,2.67
2018-12-23T13:11:00.972Z,4.53
2018-12-23T13:12:04.844Z,3.87
2018-12-23T13:13:08.184Z,2.60
2018-12-23T13:14:11.888Z,2.37
2018-12-23T13:15:15.174Z,3.23
2018-12-23T13:16:18.852Z,3.10
2018-12-23T13:17:22.148Z,3.43
2018-12-23T13:18:25.411Z,2.95
2018-12-23T13:19:28.688Z,5.00
2018-12-23T13:20:31.931Z,2.97
2018-12-23T13:21:35.206Z,3.47
2018-12-23T13:22:38.447Z,2.63
2018-12-23T13:23:41.685Z,2.67
2018-12-23T13:24:45.582Z,3.13
2018-12-23T13:25:48.937Z,3.47
2018-12-23T13:26:52.871Z,1.80
2018-12-23T13:27:56.137Z,3.08
2018-12-23T13:28:59.373Z,2.23
2018-12-23T13:30:02.639Z,2.40
2018-12-23T13:31:05.872Z,3.83
2018-12-23T13:32:09.190Z,4.92
2018-12-23T13:33:12.438Z,2.60
2018-12-23T13:34:15.697Z,4.33
2018-12-23T13:35:19.038Z,3.33
2018-12-23T13:36:24.210Z,2.27
2018-12-23T13:37:27.560Z,3.87
2018-12-23T13:38:30.796Z,3.35
2018-12-23T13:39:34.048Z,2.92
2018-12-23T13:40:59.136Z,3.10
2018-12-23T13:42:07.147Z,2.73
2018-12-23T13:43:25.489Z,1.80
2018-12-23T13:44:41.291Z,2.47
2018-12-23T13:45:52.352Z,2.52
2018-12-23T13:47:06.074Z,3.87
2018-12-23T13:48:18.947Z,3.90
2018-12-23T13:51:55.278Z,2.22
2018-12-23T13:53:05.758Z,2.60
2018-12-23T13:54:25.549Z,2.37
2018-12-23T13:55:39.143Z,2.13
2018-12-23T13:56:49.790Z,3.17
2018-12-23T13:58:06.635Z,3.00
2018-12-23T13:59:19.756Z,3.58
2018-12-23T14:00:50.260Z,3.93
2018-12-23T14:02:15.995Z,3.47
2018-12-23T14:03:29.216Z,2.70
2018-12-23T14:04:53.210Z,3.00
2018-12-23T14:06:17.197Z,2.45
2018-12-23T14:07:27.735Z,1.77
2018-12-23T14:08:44.092Z,2.30
2018-12-23T14:09:54.422Z,2.60
2018-12-23T14:11:08.203Z,3.37
2018-12-23T14:12:12.908Z,1.92